Time;durP1;ratioP1;P1;durP2;ratioP2;P2;SDS_P1;SDS_P2;PMS_P1;PMS_P2;Temp;Humidity;BMP_temperature;BMP_pressure;BME280_temperature;BME280_humidity;BME280_pressure;Samples;Min_cycle;Max_cycle;Signal;HPM_P1;HPM_P2
2023/03/12 00:01:41;;;;;;;;;;;;;;;-144.98;100.00;62585.19;4938638;29;19930;-66
2023/03/12 00:04:44;;;;;;;;;;;;;;;-144.98;100.00;62585.19;4939006;29;19942;-67
2023/03/12 00:07:47;;;;;;;;;;;;;;;-144.98;100.00;62585.19;4938745;29;20386;-67
2023/03/12 00:10:50;;;;;;;;;;;;;;;-144.98;100.00;62585.19;4938640;29;19983;-66
2023/03/12 00:13:54;;;;;;;;;;;;;;;-144.98;100.00;62585.19;4937581;29;19926;-66
2023/03/12 00:16:58;;;;;;;;;;;;;;;-144.98;100.00;62585.19;4936795;29;19973;-66
2023/03/12 00:20:01;;;;;;;;;;;;;;;-144.98;100.00;62585.19;4938525;29;19961;-67
2023/03/12 00:23:04;;;;;;;;;;;;;;;-144.98;100.00;62585.19;4926459;29;20018;-67
2023/03/12 00:26:08;;;;;;;;;;;;;;;-144.98;100.00;62585.19;4938401;29;20010;-67
2023/03/12 00:29:12;;;;;;;;;;;;;;;-144.98;100.00;62585.19;4938342;29;20033;-67
2023/03/12 00:32:15;;;;;;;;;;;;;;;-144.98;100.00;62585.19;4937890;29;19926;-67
2023/03/12 00:35:18;;;;;;;;;;;;;;;-144.98;100.00;62585.19;4938335;29;19990;-67
2023/03/12 00:38:21;;;;;;;;;;;;;;;-144.98;100.00;62585.19;4926451;29;19974;-67
2023/03/12 00:41:25;;;;;;;;;;;;;;;-144.98;100.00;62585.19;4937946;29;19935;-67
2023/03/12 00:44:28;;;;;;;;;;;;;;;-144.98;100.00;62585.19;4926485;29;19941;-67
2023/03/12 00:47:30;;;;;;;;;;;;;;;-144.98;100.00;62585.19;4926104;29;19975;-67
2023/03/12 00:50:33;;;;;;;;;;;;;;;-144.98;100.00;62585.19;4937989;29;19930;-67
2023/03/12 00:53:39;;;;;;;;;;;;;;;-144.98;100.00;62585.19;4938113;29;19961;-67
2023/03/12 00:56:44;;;;;;;;;;;;;;;-144.98;100.00;62585.19;4937309;29;19925;-67
2023/03/12 00:59:47;;;;;;;;;;;;;;;-144.98;100.00;62585.19;4925976;29;19929;-67
2023/03/12 01:02:50;;;;;;;;;;;;;;;-144.98;100.00;62585.19;4925749;29;20190;-67
2023/03/12 01:05:53;;;;;;;;;;;;;;;-144.98;100.00;62585.19;4937826;29;20283;-67
2023/03/12 01:08:57;;;;;;;;;;;;;;;-144.98;100.00;62585.19;4925767;29;19926;-67
2023/03/12 01:12:01;;;;;;;;;;;;;;;-144.98;100.00;62585.19;4937521;29;19925;-67
2023/03/12 01:15:04;;;;;;;;;;;;;;;-144.98;100.00;62585.19;4925793;29;19970;-67
2023/03/12 01:18:07;;;;;;;;;;;;;;;-144.98;100.00;62585.19;4937364;29;19925;-67
2023/03/12 01:21:10;;;;;;;;;;;;;;;-144.98;100.00;62585.19;4937394;29;19925;-67
2023/03/12 01:24:13;;;;;;;;;;;;;;;-144.98;100.00;62585.19;4937269;29;19929;-67
2023/03/12 01:27:16;;;;;;;;;;;;;;;-144.98;100.00;62585.19;4937316;29;19990;-67
2023/03/12 01:30:19;;;;;;;;;;;;;;;-144.98;100.00;62585.19;4937270;29;19926;-67
2023/03/12 01:33:22;;;;;;;;;;;;;;;-144.98;100.00;62585.19;4925365;29;20320;-67
2023/03/12 01:36:27;;;;;;;;;;;;;;;-144.98;100.00;62585.19;4936343;29;20443;-67
2023/03/12 01:39:30;;;;;;;;;;;;;;;-144.98;100.00;62585.19;4937340;29;19974;-67
2023/03/12 01:42:34;;;;;;;;;;;;;;;-144.98;100.00;62585.19;4936952;29;19986;-67
2023/03/12 01:45:59;;;;;;;;;;;;;;;-144.98;100.00;62585.19;4925003;29;19941;-67
2023/03/12 01:49:09;;;;;;;;;;;;;;;-144.98;100.00;62585.19;4924769;29;19945;-67
2023/03/12 01:52:18;;;;;;;;;;;;;;;-144.98;100.00;62585.19;4924995;29;19926;-67
2023/03/12 01:55:28;;;;;;;;;;;;;;;-144.98;100.00;62585.19;4925369;29;19982;-67
2023/03/12 01:58:32;;;;;;;;;;;;;;;-144.98;100.00;62585.19;4914221;29;19925;-67
2023/03/12 02:01:36;;;;;;;;;;;;;;;-144.98;100.00;62585.19;4936831;29;19930;-67
2023/03/12 02:04:39;;;;;;;;;;;;;;;-144.98;100.00;62585.19;4925044;29;19998;-67
2023/03/12 02:07:42;;;;;;;;;;;;;;;-144.98;100.00;62585.19;4921757;29;19926;-67
2023/03/12 02:10:46;;;;;;;;;;;;;;;-144.98;100.00;62585.19;4924759;29;20018;-67
2023/03/12 02:13:50;;;;;;;;;;;;;;;-144.98;100.00;62585.19;4936753;29;19926;-67
2023/03/12 02:16:54;;;;;;;;;;;;;;;-144.98;100.00;62585.19;4924756;29;20447;-67
2023/03/12 02:20:06;;;;;;;;;;;;;;;-144.98;100.00;62585.19;4924700;29;19925;-67
2023/03/12 02:23:17;;;;;;;;;;;;;;;-144.98;100.00;62585.19;4932485;29;19969;-67
2023/03/12 02:26:23;;;;;;;;;;;;;;;-144.98;100.00;62585.19;4943603;29;19965;-67
2023/03/12 02:29:29;;;;;;;;;;;;;;;-144.98;100.00;62585.19;4943465;29;19925;-67
2023/03/12 02:32:34;;;;;;;;;;;;;;;-144.98;100.00;62585.19;4955239;29;19942;-67
2023/03/12 02:35:37;;;;;;;;;;;;;;;-144.98;100.00;62585.19;4943373;29;19924;-67
2023/03/12 02:38:42;;;;;;;;;;;;;;;-144.98;100.00;62585.19;4932721;29;19949;-67
2023/03/12 02:41:54;;;;;;;;;;;;;;;-144.98;100.00;62585.19;4955050;29;19933;-67
2023/03/12 02:44:58;;;;;;;;;;;;;;;-144.98;100.00;62585.19;4955181;29;19950;-67
2023/03/12 02:48:01;;;;;;;;;;;;;;;-144.98;100.00;62585.19;4954847;29;19932;-67
2023/03/12 02:51:05;;;;;;;;;;;;;;;-144.98;100.00;62585.19;4943298;29;19946;-66
2023/03/12 02:54:08;;;;;;;;;;;;;;;-144.98;100.00;62585.19;4943099;29;20422;-67
2023/03/12 02:57:11;;;;;;;;;;;;;;;-144.98;100.00;62585.19;4942497;29;19925;-67
2023/03/12 03:00:16;;;;;;;;;;;;;;;-144.98;100.00;62585.19;4955018;29;19930;-67
2023/03/12 03:03:24;;;;;;;;;;;;;;;-144.98;100.00;62585.19;4942933;29;19980;-67
2023/03/12 03:06:27;;;;;;;;;;;;;;;-144.98;100.00;62585.19;4943025;29;19979;-67
2023/03/12 03:09:30;;;;;;;;;;;;;;;-144.98;100.00;62585.19;4942998;29;20302;-67
2023/03/12 03:12:34;;;;;;;;;;;;;;;-144.98;100.00;62585.19;4932020;29;20389;-67
2023/03/12 03:15:38;;;;;;;;;;;;;;;-144.98;100.00;62585.19;4943331;29;19926;-67
2023/03/12 03:18:41;;;;;;;;;;;;;;;-144.98;100.00;62585.19;4954734;29;19973;-67
2023/03/12 03:21:44;;;;;;;;;;;;;;;-144.98;100.00;62585.19;4943203;29;19996;-67
2023/03/12 03:24:48;;;;;;;;;;;;;;;-144.98;100.00;62585.19;4954908;29;19972;-67
2023/03/12 03:27:51;;;;;;;;;;;;;;;-144.98;100.00;62585.19;4953712;29;19925;-67
2023/03/12 03:31:00;;;;;;;;;;;;;;;-144.98;100.00;62585.19;4954628;29;20030;-67
2023/03/12 03:34:05;;;;;;;;;;;;;;;-144.98;100.00;62585.19;4942687;29;19930;-67
2023/03/12 03:37:08;;;;;;;;;;;;;;;-144.98;100.00;62585.19;4954658;29;20022;-66
2023/03/12 03:40:12;;;;;;;;;;;;;;;-144.98;100.00;62585.19;4942802;29;19941;-66
2023/03/12 03:43:16;;;;;;;;;;;;;;;-144.98;100.00;62585.19;4942626;29;19933;-66
2023/03/12 03:46:18;;;;;;;;;;;;;;;-144.98;100.00;62585.19;4942971;29;20282;-66
2023/03/12 03:49:26;;;;;;;;;;;;;;;-144.98;100.00;62585.19;4942446;29;20028;-66
2023/03/12 03:52:30;;;;;;;;;;;;;;;-144.98;100.00;62585.19;4942580;29;19972;-66
2023/03/12 03:55:37;;;;;;;;;;;;;;;-144.98;100.00;62585.19;4954460;29;19968;-67
2023/03/12 03:58:40;;;;;;;;;;;;;;;-144.98;100.00;62585.19;4942812;29;19925;-66
2023/03/12 04:01:43;;;;;;;;;;;;;;;-144.98;100.00;62585.19;4954387;29;19973;-67
2023/03/12 04:04:46;;;;;;;;;;;;;;;-144.98;100.00;62585.19;4954651;29;19925;-67
2023/03/12 04:07:51;;;;;;;;;;;;;;;-144.98;100.00;62585.19;4942930;29;19926;-67
2023/03/12 04:10:56;;;;;;;;;;;;;;;-144.98;100.00;62585.19;4945856;29;19973;-67
2023/03/12 04:13:59;;;;;;;;;;;;;;;-144.98;100.00;62585.19;4957734;29;19987;-67
2023/03/12 04:17:06;;;;;;;;;;;;;;;-144.98;100.00;62585.19;4957579;29;19925;-67
2023/03/12 04:20:10;;;;;;;;;;;;;;;-144.98;100.00;62585.19;4945899;29;20298;-68
2023/03/12 04:23:15;;;;;;;;;;;;;;;-144.98;100.00;62585.19;4945794;29;19984;-68
2023/03/12 04:26:19;;;;;;;;;;;;;;;-144.98;100.00;62585.19;4945549;29;20387;-65
2023/03/12 04:29:22;;;;;;;;;;;;;;;-144.98;100.00;62585.19;4945359;29;19926;-65
2023/03/12 04:32:25;;;;;;;;;;;;;;;-144.98;100.00;62585.19;4945589;29;19977;-65
2023/03/12 04:35:29;;;;;;;;;;;;;;;-144.98;100.00;62585.19;4945326;29;19925;-65
2023/03/12 04:38:32;;;;;;;;;;;;;;;-144.98;100.00;62585.19;4957191;29;19968;-65
2023/03/12 04:41:35;;;;;;;;;;;;;;;-144.98;100.00;62585.19;4945189;29;19930;-65
2023/03/12 04:44:51;;;;;;;;;;;;;;;-144.98;100.00;62585.19;4945151;29;19972;-65
2023/03/12 04:47:55;;;;;;;;;;;;;;;-144.98;100.00;62585.19;4945101;29;20430;-66
2023/03/12 04:50:58;;;;;;;;;;;;;;;-144.98;100.00;62585.19;4945229;29;19926;-65
2023/03/12 04:54:02;;;;;;;;;;;;;;;-144.98;100.00;62585.19;4944913;29;19926;-65
2023/03/12 04:57:05;;;;;;;;;;;;;;;-144.98;100.00;62585.19;4944990;29;19968;-65
2023/03/12 05:00:12;;;;;;;;;;;;;;;-144.98;100.00;62585.19;4944854;29;20498;-65
2023/03/12 05:03:41;;;;;;;;;;;;;;;-144.98;100.00;62585.19;4956780;29;19934;-65
2023/03/12 05:07:39;;;;;;;;;;;;;;;-144.98;100.00;62585.19;4956842;29;19974;-65
2023/03/12 05:11:44;;;;;;;;;;;;;;;-144.98;100.00;62585.19;4947706;29;19930;-65
2023/03/12 05:15:21;;;;;;;;;;;;;;;-144.98;100.00;62585.19;4864034;29;20013;-66
2023/03/12 05:18:25;;;;;;;;;;;;;;;-144.98;100.00;62585.19;4956276;28;19921;-65
2023/03/12 05:21:28;;;;;;;;;;;;;;;-144.98;100.00;62585.19;4944430;29;19925;-65
2023/03/12 05:24:34;;;;;;;;;;;;;;;-144.98;100.00;62585.19;4944499;29;19989;-66
2023/03/12 05:27:38;;;;;;;;;;;;;;;-144.98;100.00;62585.19;4944689;29;20385;-66
2023/03/12 05:30:41;;;;;;;;;;;;;;;-144.98;100.00;62585.19;4944426;29;19925;-66
2023/03/12 05:33:45;;;;;;;;;;;;;;;-144.98;100.00;62585.19;4944287;29;20247;-66
2023/03/12 05:36:48;;;;;;;;;;;;;;;-144.98;100.00;62585.19;4944232;29;19968;-65
2023/03/12 05:39:56;;;;;;;;;;;;;;;-144.98;100.00;62585.19;4944158;29;20437;-65
2023/03/12 05:42:59;;;;;;;;;;;;;;;-144.98;100.00;62585.19;4943941;29;19930;-65
2023/03/12 05:46:03;;;;;;;;;;;;;;;-144.98;100.00;62585.19;4944221;29;19941;-65
2023/03/12 05:49:08;;;;;;;;;;;;;;;-144.98;100.00;62585.19;4943585;29;19930;-65
2023/03/12 05:52:11;;;;;;;;;;;;;;;-144.98;100.00;62585.19;4944210;29;19926;-67
2023/03/12 05:55:15;;;;;;;;;;;;;;;-144.98;100.00;62585.19;4943961;29;20429;-66
2023/03/12 05:58:18;;;;;;;;;;;;;;;-144.98;100.00;62585.19;4933172;29;20429;-66
2023/03/12 06:01:23;;;;;;;;;;;;;;;-144.98;100.00;62585.19;4955782;29;19941;-66
2023/03/12 06:04:28;;;;;;;;;;;;;;;-144.98;100.00;62585.19;4943856;29;19991;-66
2023/03/12 06:07:31;;;;;;;;;;;;;;;-144.98;100.00;62585.19;4943730;29;19973;-69
2023/03/12 06:10:36;;;;;;;;;;;;;;;-144.98;100.00;62585.19;4932750;29;19925;-66
2023/03/12 06:13:39;;;;;;;;;;;;;;;-144.98;100.00;62585.19;4943685;29;20438;-66
2023/03/12 06:16:43;;;;;;;;;;;;;;;-144.98;100.00;62585.19;4955784;29;20282;-66
2023/03/12 06:19:49;;;;;;;;;;;;;;;-144.98;100.00;62585.19;4955535;29;20449;-66
2023/03/12 06:22:52;;;;;;;;;;;;;;;-144.98;100.00;62585.19;4955338;28;20391;-66
2023/03/12 06:25:55;;;;;;;;;;;;;;;-144.98;100.00;62585.19;4955737;29;20455;-66
2023/03/12 06:28:58;;;;;;;;;;;;;;;-144.98;100.00;62585.19;4955678;29;19925;-72
2023/03/12 06:32:07;;;;;;;;;;;;;;;-144.98;100.00;62585.19;4954428;29;20006;-65
2023/03/12 06:35:10;;;;;;;;;;;;;;;-144.98;100.00;62585.19;4955373;29;19981;-67
2023/03/12 06:42:55;;;;;;;;;;;;;;;-144.98;100.00;62585.19;4913184;29;19942;-67
2023/03/12 06:45:59;;;;;;;;;;;;;;;-144.98;100.00;62585.19;4955166;29;19925;-67
2023/03/12 06:49:01;;;;;;;;;;;;;;;-144.98;100.00;62585.19;4955116;29;19934;-67
2023/03/12 06:52:14;;;;;;;;;;;;;;;-144.98;100.00;62585.19;4955205;29;20335;-67
2023/03/12 06:55:17;;;;;;;;;;;;;;;-144.98;100.00;62585.19;4955478;29;19941;-67
2023/03/12 06:58:20;;;;;;;;;;;;;;;-144.98;100.00;62585.19;4955097;29;19926;-67
2023/03/12 07:01:42;;;;;;;;;;;;;;;-144.98;100.00;62585.19;4955223;29;19941;-68
2023/03/12 07:04:52;;;;;;;;;;;;;;;-144.98;100.00;62585.19;4955050;29;20401;-68
2023/03/12 07:07:55;;;;;;;;;;;;;;;-144.98;100.00;62585.19;4954493;29;20030;-65
2023/03/12 07:11:02;;;;;;;;;;;;;;;-144.98;100.00;62585.19;4954992;29;20306;-65
2023/03/12 07:14:05;;;;;;;;;;;;;;;-144.98;100.00;62585.19;4954301;29;19924;-65
2023/03/12 07:17:16;;;;;;;;;;;;;;;-144.98;100.00;62585.19;4953773;29;19966;-65
2023/03/12 07:24:51;;;;;;;;;;;;;;;-144.98;100.00;62585.19;4954286;29;20291;-66
2023/03/12 07:28:13;;;;;;;;;;;;;;;-144.98;100.00;62585.19;4955128;29;19972;-66
2023/03/12 07:31:39;;;;;;;;;;;;;;;-144.98;100.00;62585.19;4931851;29;19926;-65
2023/03/12 07:34:50;;;;;;;;;;;;;;;-144.98;100.00;62585.19;4954273;29;19925;-65
2023/03/12 07:38:00;;;;;;;;;;;;;;;-144.98;100.00;62585.19;4954870;29;20290;-65
2023/03/12 07:41:04;;;;;;;;;;;;;;;-144.98;100.00;62585.19;4953244;29;19965;-65
2023/03/12 07:44:08;;;;;;;;;;;;;;;-144.98;100.00;62585.19;4956102;29;19929;-64
2023/03/12 07:47:11;;;;;;;;;;;;;;;-144.98;100.00;62585.19;4957465;29;19973;-65
2023/03/12 07:50:14;;;;;;;;;;;;;;;-144.98;100.00;62585.19;4957880;29;19933;-65
2023/03/12 07:53:17;;;;;;;;;;;;;;;-144.98;100.00;62585.19;4958245;29;19925;-65
2023/03/12 07:56:20;;;;;;;;;;;;;;;-144.98;100.00;62585.19;4958467;29;19929;-68
2023/03/12 07:59:26;;;;;;;;;;;;;;;-144.98;100.00;62585.19;4958115;29;20342;-68
2023/03/12 08:02:31;;;;;;;;;;;;;;;-144.98;100.00;62585.19;4957963;29;20298;-65
2023/03/12 08:09:49;;;;;;;;;;;;;;;-144.98;100.00;62585.19;4957829;29;19949;-65
2023/03/12 08:12:52;;;;;;;;;;;;;;;-144.98;100.00;62585.19;4958038;29;20302;-65
2023/03/12 08:15:55;;;;;;;;;;;;;;;-144.98;100.00;62585.19;4957675;29;19952;-64
2023/03/12 08:18:59;;;;;;;;;;;;;;;-144.98;100.00;62585.19;4957407;29;20010;-65
2023/03/12 08:22:02;;;;;;;;;;;;;;;-144.98;100.00;62585.19;4957230;28;20394;-66
2023/03/12 08:25:10;;;;;;;;;;;;;;;-144.98;100.00;62585.19;4945586;29;19929;-65
2023/03/12 08:28:20;;;;;;;;;;;;;;;-144.98;100.00;62585.19;4954785;29;20390;-64
2023/03/12 08:31:24;;;;;;;;;;;;;;;-144.98;100.00;62585.19;4957376;29;19925;-66
2023/03/12 08:34:28;;;;;;;;;;;;;;;-144.98;100.00;62585.19;4957211;29;19924;-65
2023/03/12 08:37:32;;;;;;;;;;;;;;;-144.98;100.00;62585.19;4957425;29;19930;-64
2023/03/12 08:40:36;;;;;;;;;;;;;;;-144.98;100.00;62585.19;4945648;29;20335;-66
2023/03/12 08:43:40;;;;;;;;;;;;;;;-144.98;100.00;62585.19;4957205;29;20062;-64
2023/03/12 08:46:43;;;;;;;;;;;;;;;-144.98;100.00;62585.19;4951286;29;20018;-65
2023/03/12 08:49:46;;;;;;;;;;;;;;;-144.98;100.00;62585.19;4954313;29;19933;-66
2023/03/12 08:52:49;;;;;;;;;;;;;;;-144.98;100.00;62585.19;4956567;29;20303;-66
2023/03/12 08:55:54;;;;;;;;;;;;;;;-144.98;100.00;62585.19;4956512;29;19925;-65
2023/03/12 08:58:57;;;;;;;;;;;;;;;-144.98;100.00;62585.19;4957126;29;19924;-65
2023/03/12 09:02:01;;;;;;;;;;;;;;;-144.98;100.00;62585.19;4956850;29;19930;-64
2023/03/12 09:05:07;;;;;;;;;;;;;;;-144.98;100.00;62585.19;4956992;29;19925;-65
2023/03/12 09:08:10;;;;;;;;;;;;;;;-144.98;100.00;62585.19;4956928;29;19946;-65
2023/03/12 09:11:15;;;;;;;;;;;;;;;-144.98;100.00;62585.19;4956782;29;20291;-66
2023/03/12 09:14:19;;;;;;;;;;;;;;;-144.98;100.00;62585.19;4941979;29;19929;-65
2023/03/12 09:17:25;;;;;;;;;;;;;;;-144.98;100.00;62585.19;4956803;29;20299;-65
2023/03/12 09:20:28;;;;;;;;;;;;;;;-144.98;100.00;62585.19;4956704;29;20401;-65
2023/03/12 09:23:44;;;;;;;;;;;;;;;-144.98;100.00;62585.19;4956497;28;20010;-64
2023/03/12 09:26:54;;;;;;;;;;;;;;;-144.98;100.00;62585.19;4956898;29;19926;-65
2023/03/12 09:29:58;;;;;;;;;;;;;;;-144.98;100.00;62585.19;4956451;29;19925;-64
2023/03/12 09:33:01;;;;;;;;;;;;;;;-144.98;100.00;62585.19;4956575;29;20012;-64
2023/03/12 09:36:04;;;;;;;;;;;;;;;-144.98;100.00;62585.19;4956661;29;19929;-64
2023/03/12 09:39:07;;;;;;;;;;;;;;;-144.98;100.00;62585.19;4956385;29;19926;-64
2023/03/12 09:42:18;;;;;;;;;;;;;;;-144.98;100.00;62585.19;4956149;29;19929;-64
2023/03/12 09:45:25;;;;;;;;;;;;;;;-144.98;100.00;62585.19;4956200;29;20054;-63
2023/03/12 09:48:33;;;;;;;;;;;;;;;-144.98;100.00;62585.19;4944187;29;20013;-63
2023/03/12 09:51:40;;;;;;;;;;;;;;;-144.98;100.00;62585.19;4955759;29;20346;-64
2023/03/12 09:54:46;;;;;;;;;;;;;;;-144.98;100.00;62585.19;4956353;29;20283;-65
2023/03/12 09:57:50;;;;;;;;;;;;;;;-144.98;100.00;62585.19;4956035;29;19961;-65
2023/03/12 10:00:57;;;;;;;;;;;;;;;-144.98;100.00;62585.19;4955862;29;19968;-65
2023/03/12 10:04:00;;;;;;;;;;;;;;;-144.98;100.00;62585.19;4955875;29;20380;-67
2023/03/12 10:07:10;;;;;;;;;;;;;;;-144.98;100.00;62585.19;4956130;29;19928;-64
2023/03/12 10:10:19;;;;;;;;;;;;;;;-144.98;100.00;62585.19;4955799;29;20012;-63
2023/03/12 10:13:39;;;;;;;;;;;;;;;-144.98;100.00;62585.19;4955723;29;20347;-63
2023/03/12 10:16:52;;;;;;;;;;;;;;;-144.98;100.00;62585.19;4955854;29;19967;-63
2023/03/12 10:20:08;;;;;;;;;;;;;;;-144.98;100.00;62585.19;4955669;29;19924;-64
2023/03/12 10:23:17;;;;;;;;;;;;;;;-144.98;100.00;62585.19;4955476;28;19951;-64
2023/03/12 10:26:24;;;;;;;;;;;;;;;-144.98;100.00;62585.19;4955524;29;19926;-64
2023/03/12 10:29:32;;;;;;;;;;;;;;;-144.98;100.00;62585.19;4943605;29;19926;-64
2023/03/12 10:32:35;;;;;;;;;;;;;;;-144.98;100.00;62585.19;4955620;29;19964;-64
2023/03/12 10:35:39;;;;;;;;;;;;;;;-144.98;100.00;62585.19;4954805;29;20294;-64
2023/03/12 10:38:42;;;;;;;;;;;;;;;-144.98;100.00;62585.19;4955665;29;19961;-64
2023/03/12 10:41:47;;;;;;;;;;;;;;;-144.98;100.00;62585.19;4943044;29;19970;-64
2023/03/12 10:44:52;;;;;;;;;;;;;;;-144.98;100.00;62585.19;4942541;29;20295;-64
2023/03/12 10:47:59;;;;;;;;;;;;;;;-144.98;100.00;62585.19;4954702;29;19929;-64
2023/03/12 10:51:04;;;;;;;;;;;;;;;-144.98;100.00;62585.19;4953711;29;19926;-64
2023/03/12 10:54:20;;;;;;;;;;;;;;;-144.98;100.00;62585.19;4954547;29;19925;-64
2023/03/12 10:57:37;;;;;;;;;;;;;;;-144.98;100.00;62585.19;4955268;29;20500;-64
2023/03/12 11:00:53;;;;;;;;;;;;;;;-144.98;100.00;62585.19;4955468;29;19973;-64
2023/03/12 11:04:16;;;;;;;;;;;;;;;-144.98;100.00;62585.19;4954943;29;19929;-64
2023/03/12 11:07:26;;;;;;;;;;;;;;;-144.98;100.00;62585.19;4955157;29;19926;-64
2023/03/12 11:10:43;;;;;;;;;;;;;;;-144.98;100.00;62585.19;4955016;29;20001;-62
2023/03/12 11:14:04;;;;;;;;;;;;;;;-144.98;100.00;62585.19;4954594;29;19926;-64
2023/03/12 11:17:18;;;;;;;;;;;;;;;-144.98;100.00;62585.19;4955569;28;19969;-65
2023/03/12 11:20:26;;;;;;;;;;;;;;;-144.98;100.00;62585.19;4958945;29;19973;-63
2023/03/12 11:23:31;;;;;;;;;;;;;;;-144.98;100.00;62585.19;4958657;28;20299;-62
2023/03/12 11:26:36;;;;;;;;;;;;;;;-144.98;100.00;62585.19;4958767;29;19950;-63
2023/03/12 11:29:47;;;;;;;;;;;;;;;-144.98;100.00;62585.19;4958748;29;20286;-63
2023/03/12 11:32:51;;;;;;;;;;;;;;;-144.98;100.00;62585.19;4958893;29;19925;-63
2023/03/12 11:35:54;;;;;;;;;;;;;;;-144.98;100.00;62585.19;4958637;29;20010;-63
2023/03/12 11:39:16;;;;;;;;;;;;;;;-144.98;100.00;62585.19;4958556;29;20310;-63
2023/03/12 11:42:40;;;;;;;;;;;;;;;-144.98;100.00;62585.19;4946699;29;19978;-63
2023/03/12 11:45:43;;;;;;;;;;;;;;;-144.98;100.00;62585.19;4949473;29;20402;-63
2023/03/12 11:49:05;;;;;;;;;;;;;;;-144.98;100.00;62585.19;4958316;29;19929;-63
2023/03/12 11:52:14;;;;;;;;;;;;;;;-144.98;100.00;62585.19;4958350;29;19925;-62
2023/03/12 11:55:37;;;;;;;;;;;;;;;-144.98;100.00;62585.19;4958334;29;19966;-62
2023/03/12 11:58:40;;;;;;;;;;;;;;;-144.98;100.00;62585.19;4958217;29;20035;-62
2023/03/12 12:01:50;;;;;;;;;;;;;;;-144.98;100.00;62585.19;4958034;29;19973;-62
2023/03/12 12:04:56;;;;;;;;;;;;;;;-144.98;100.00;62585.19;4957955;29;20339;-62
2023/03/12 12:08:05;;;;;;;;;;;;;;;-144.98;100.00;62585.19;4958015;29;20323;-61
2023/03/12 12:11:24;;;;;;;;;;;;;;;-144.98;100.00;62585.19;4958022;29;19925;-62
2023/03/12 12:14:45;;;;;;;;;;;;;;;-144.98;100.00;62585.19;4958272;29;19946;-63
2023/03/12 12:17:51;;;;;;;;;;;;;;;-144.98;100.00;62585.19;4958149;29;19941;-63
2023/03/12 12:21:00;;;;;;;;;;;;;;;-144.98;100.00;62585.19;4957790;29;20035;-63
2023/03/12 12:24:12;;;;;;;;;;;;;;;-144.98;100.00;62585.19;4957550;28;20291;-64
2023/03/12 12:27:15;;;;;;;;;;;;;;;-144.98;100.00;62585.19;4957698;29;19993;-62
2023/03/12 12:30:28;;;;;;;;;;;;;;;-144.98;100.00;62585.19;4956447;29;19946;-63
2023/03/12 12:33:43;;;;;;;;;;;;;;;-144.98;100.00;62585.19;4957956;29;19981;-67
2023/03/12 12:36:51;;;;;;;;;;;;;;;-144.98;100.00;62585.19;4957534;29;19989;-63
2023/03/12 12:40:13;;;;;;;;;;;;;;;-144.98;100.00;62585.19;4957481;29;19925;-62
2023/03/12 12:43:29;;;;;;;;;;;;;;;-144.98;100.00;62585.19;4957518;29;19946;-63
2023/03/12 12:46:38;;;;;;;;;;;;;;;-144.98;100.00;62585.19;4957336;29;19965;-63
2023/03/12 12:49:50;;;;;;;;;;;;;;;-144.98;100.00;62585.19;4957075;29;19930;-63
2023/03/12 12:53:04;;;;;;;;;;;;;;;-144.98;100.00;62585.19;4957141;29;19941;-63
2023/03/12 12:56:12;;;;;;;;;;;;;;;-144.98;100.00;62585.19;4957095;29;19925;-63
2023/03/12 12:59:32;;;;;;;;;;;;;;;-144.98;100.00;62585.19;4957169;29;19947;-63
2023/03/12 13:02:41;;;;;;;;;;;;;;;-144.98;100.00;62585.19;4945028;29;20065;-62
2023/03/12 13:05:46;;;;;;;;;;;;;;;-144.98;100.00;62585.19;4956991;29;19925;-62
2023/03/12 13:08:50;;;;;;;;;;;;;;;-144.98;100.00;62585.19;4945314;29;20397;-63
2023/03/12 13:11:54;;;;;;;;;;;;;;;-144.98;100.00;62585.19;4944991;29;19930;-63
2023/03/12 13:14:58;;;;;;;;;;;;;;;-144.98;100.00;62585.19;4945236;29;20397;-63
2023/03/12 13:18:04;;;;;;;;;;;;;;;-144.98;100.00;62585.19;4956840;29;19977;-63
2023/03/12 13:21:18;;;;;;;;;;;;;;;-144.98;100.00;62585.19;4956639;29;19981;-62
2023/03/12 13:24:41;;;;;;;;;;;;;;;-144.98;100.00;62585.19;4956631;29;19976;-63
2023/03/12 13:27:45;;;;;;;;;;;;;;;-144.98;100.00;62585.19;4944748;29;19925;-63
2023/03/12 13:30:50;;;;;;;;;;;;;;;-144.98;100.00;62585.19;4956395;29;20302;-63
2023/03/12 13:34:12;;;;;;;;;;;;;;;-144.98;100.00;62585.19;4956798;29;19953;-63
2023/03/12 13:37:26;;;;;;;;;;;;;;;-144.98;100.00;62585.19;4956464;29;19978;-63
2023/03/12 13:40:29;;;;;;;;;;;;;;;-144.98;100.00;62585.19;4950127;29;19925;-64
2023/03/12 13:43:35;;;;;;;;;;;;;;;-144.98;100.00;62585.19;4955116;29;20046;-64
2023/03/12 13:46:39;;;;;;;;;;;;;;;-144.98;100.00;62585.19;4955879;29;20421;-63
2023/03/12 13:49:55;;;;;;;;;;;;;;;-144.98;100.00;62585.19;4955612;29;19933;-62
2023/03/12 13:53:14;;;;;;;;;;;;;;;-144.98;100.00;62585.19;4956294;29;20035;-65
2023/03/12 13:56:18;;;;;;;;;;;;;;;-144.98;100.00;62585.19;4956094;29;19961;-64
2023/03/12 13:59:23;;;;;;;;;;;;;;;-144.98;100.00;62585.19;4955819;29;20429;-66
2023/03/12 14:02:33;;;;;;;;;;;;;;;-144.98;100.00;62585.19;4955918;29;19933;-64
2023/03/12 14:05:49;;;;;;;;;;;;;;;-144.98;100.00;62585.19;4943951;29;20437;-63
2023/03/12 14:09:03;;;;;;;;;;;;;;;-144.98;100.00;62585.19;4955877;29;20018;-64
2023/03/12 14:12:24;;;;;;;;;;;;;;;-144.98;100.00;62585.19;4955831;29;19992;-64
2023/03/12 14:15:46;;;;;;;;;;;;;;;-144.98;100.00;62585.19;4955954;29;20295;-64
2023/03/12 14:18:50;;;;;;;;;;;;;;;-144.98;100.00;62585.19;4955623;29;20010;-65
2023/03/12 14:21:54;;;;;;;;;;;;;;;-144.98;100.00;62585.19;4955505;28;19973;-64
2023/03/12 14:25:00;;;;;;;;;;;;;;;-144.98;100.00;62585.19;4955462;29;19926;-65
2023/03/12 14:28:10;;;;;;;;;;;;;;;-144.98;100.00;62585.19;4954672;29;19941;-65
2023/03/12 14:31:16;;;;;;;;;;;;;;;-144.98;100.00;62585.19;4954126;29;19929;-66
2023/03/12 14:34:24;;;;;;;;;;;;;;;-144.98;100.00;62585.19;4954746;29;19930;-76
2023/03/12 14:37:39;;;;;;;;;;;;;;;-144.98;100.00;62585.19;4943491;29;19925;-71
2023/03/12 14:40:45;;;;;;;;;;;;;;;-144.98;100.00;62585.19;4955331;29;19950;-78
2023/03/12 14:43:52;;;;;;;;;;;;;;;-144.98;100.00;62585.19;4955337;29;19950;-78
2023/03/12 14:46:57;;;;;;;;;;;;;;;-144.98;100.00;62585.19;4955259;29;20347;-75
2023/03/12 14:50:02;;;;;;;;;;;;;;;-144.98;100.00;62585.19;4913291;29;19983;-83
2023/03/12 14:53:18;;;;;;;;;;;;;;;-144.98;100.00;62585.19;4923815;29;19930;-79
2023/03/12 14:56:39;;;;;;;;;;;;;;;-144.98;100.00;62585.19;4936134;29;19961;-82
2023/03/12 14:59:54;;;;;;;;;;;;;;;-144.98;100.00;62585.19;4936194;29;19925;-81
2023/03/12 15:06:55;;;;;;;;;;;;;;;-144.98;100.00;62585.19;4932982;29;19946;-83
2023/03/12 15:10:05;;;;;;;;;;;;;;;-144.98;100.00;62585.19;4935908;29;19946;-81
2023/03/12 15:13:11;;;;;;;;;;;;;;;-144.98;100.00;62585.19;4935990;29;19926;-81
2023/03/12 15:16:16;;;;;;;;;;;;;;;-144.98;100.00;62585.19;4935950;29;19975;-83
2023/03/12 15:19:49;;;;;;;;;;;;;;;-144.98;100.00;62585.19;4914293;29;19926;-83
2023/03/12 15:23:25;;;;;;;;;;;;;;;-144.98;100.00;62585.19;4919038;29;19951;-82
2023/03/12 15:26:31;;;;;;;;;;;;;;;-144.98;100.00;62585.19;4924316;29;19973;-81
2023/03/12 15:29:43;;;;;;;;;;;;;;;-144.98;100.00;62585.19;4936075;29;20005;-66
2023/03/12 15:33:02;;;;;;;;;;;;;;;-144.98;100.00;62585.19;4935747;29;19934;-75
2023/03/12 15:36:17;;;;;;;;;;;;;;;-144.98;100.00;62585.19;4935973;29;20009;-72
2023/03/12 15:39:26;;;;;;;;;;;;;;;-144.98;100.00;62585.19;4935708;29;19975;-72
2023/03/12 15:42:35;;;;;;;;;;;;;;;-144.98;100.00;62585.19;4935560;29;19930;-73
2023/03/12 15:45:39;;;;;;;;;;;;;;;-144.98;100.00;62585.19;4935481;29;19953;-72
2023/03/12 15:48:47;;;;;;;;;;;;;;;-144.98;100.00;62585.19;4943999;29;19928;-72
2023/03/12 15:52:02;;;;;;;;;;;;;;;-144.98;100.00;62585.19;4954953;29;20406;-72
2023/03/12 15:55:09;;;;;;;;;;;;;;;-144.98;100.00;62585.19;4954606;29;20110;-70
2023/03/12 15:58:42;;;;;;;;;;;;;;;-144.98;100.00;62585.19;4954899;29;19925;-73